createdAt,value
2022-11-15T00:02:15.342Z,43.17
2022-11-15T00:04:46.458Z,42.85
2022-11-15T00:07:40.492Z,44.08
2022-11-15T00:10:09.708Z,44.13
2022-11-15T00:12:41.463Z,45.00
2022-11-15T00:15:15.119Z,45.33
2022-11-15T00:17:46.300Z,43.03
2022-11-15T00:20:18.105Z,43.42
2022-11-15T00:22:49.368Z,41.88
2022-11-15T00:25:20.293Z,43.95
2022-11-15T00:27:52.945Z,42.35
2022-11-15T00:30:26.517Z,43.83
2022-11-15T00:32:58.239Z,45.33
2022-11-15T00:35:29.445Z,43.83
2022-11-15T00:38:00.783Z,45.38
2022-11-15T00:40:32.142Z,43.72
2022-11-15T00:43:03.810Z,43.45
2022-11-15T00:45:38.541Z,42.53
2022-11-15T00:48:11.747Z,43.90
2022-11-15T00:50:44.352Z,45.55
2022-11-15T00:53:32.392Z,45.60
2022-11-15T00:56:05.041Z,44.47
2022-11-15T00:58:37.660Z,46.05
2022-11-15T01:01:18.452Z,46.00
2022-11-15T01:03:51.263Z,46.83
2022-11-15T01:06:23.621Z,46.58
2022-11-15T01:08:56.384Z,47.47
2022-11-15T01:11:29.023Z,48.55
2022-11-15T01:14:02.221Z,46.40
2022-11-15T01:16:37.571Z,47.03
2022-11-15T01:19:10.691Z,47.92
2022-11-15T01:21:56.812Z,45.28
2022-11-15T01:24:28.296Z,47.05
2022-11-15T01:26:59.324Z,46.05
2022-11-15T01:29:30.854Z,47.65
2022-11-15T01:32:04.750Z,47.08
2022-11-15T01:34:38.047Z,46.97
2022-11-15T01:37:09.361Z,47.47
2022-11-15T01:39:40.827Z,47.17
2022-11-15T01:42:17.753Z,47.67
2022-11-15T01:44:54.551Z,47.85
2022-11-15T01:47:46.262Z,47.90
2022-11-15T01:50:24.562Z,47.17
2022-11-15T01:53:43.863Z,47.58
2022-11-15T01:56:24.523Z,47.25
2022-11-15T01:59:03.242Z,48.20
2022-11-15T02:01:43.803Z,48.08
2022-11-15T02:04:23.375Z,48.10
2022-11-15T02:06:56.253Z,47.17
2022-11-15T02:09:28.903Z,48.13
2022-11-15T02:12:03.750Z,47.50
2022-11-15T02:14:42.231Z,49.03
2022-11-15T02:20:40.610Z,49.25
2022-11-15T02:23:41.323Z,48.03
2022-11-15T02:26:45.800Z,46.15
2022-11-15T02:29:25.483Z,47.15
2022-11-15T02:32:05.455Z,47.63
2022-11-15T02:34:51.901Z,47.80
2022-11-15T02:37:32.758Z,49.53
2022-11-15T02:40:13.819Z,47.75
2022-11-15T02:43:08.306Z,48.10
2022-11-15T02:45:57.077Z,48.70
2022-11-15T02:48:32.114Z,47.63
2022-11-15T02:51:05.282Z,48.30
2022-11-15T02:53:36.757Z,48.30
2022-11-15T02:56:09.017Z,50.20
2022-11-15T02:59:02.537Z,48.45
2022-11-15T03:01:46.711Z,46.08
2022-11-15T03:04:33.601Z,47.47
2022-11-15T03:07:15.036Z,46.60
2022-11-15T03:09:55.989Z,46.25
2022-11-15T03:12:33.304Z,47.45
2022-11-15T03:15:09.868Z,46.53
2022-11-15T03:17:47.105Z,47.05
2022-11-15T03:20:23.047Z,46.13
2022-11-15T03:22:57.117Z,46.42
2022-11-15T03:25:32.337Z,46.78
2022-11-15T03:28:40.105Z,46.95
2022-11-15T03:31:28.704Z,44.28
2022-11-15T03:34:20.570Z,44.28
2022-11-15T03:36:56.982Z,47.80
2022-11-15T03:39:32.713Z,47.30
2022-11-15T03:42:16.593Z,47.80
2022-11-15T03:44:57.585Z,46.13
2022-11-15T03:47:36.014Z,45.90
2022-11-15T03:50:15.463Z,43.92
2022-11-15T03:52:53.204Z,45.20
2022-11-15T03:55:27.106Z,44.00
2022-11-15T03:58:03.034Z,45.30
2022-11-15T04:00:36.922Z,44.22
2022-11-15T04:03:10.692Z,45.58
2022-11-15T04:05:43.377Z,44.17
2022-11-15T04:08:17.725Z,44.40
2022-11-15T04:13:43.286Z,43.90
2022-11-15T04:16:15.061Z,44.10
2022-11-15T04:19:06.629Z,43.58
2022-11-15T04:21:50.815Z,43.13
2022-11-15T04:24:24.911Z,41.80
2022-11-15T04:26:57.068Z,42.60
2022-11-15T04:29:41.618Z,43.40
2022-11-15T04:32:16.501Z,41.22
2022-11-15T04:34:48.186Z,42.20
2022-11-15T04:37:20.123Z,42.35
2022-11-15T04:39:54.340Z,42.17
2022-11-15T04:42:26.322Z,41.00
2022-11-15T04:44:57.948Z,42.42
2022-11-15T04:47:30.840Z,42.97
2022-11-15T04:50:02.396Z,43.15
2022-11-15T04:52:34.430Z,42.65
2022-11-15T04:55:09.254Z,41.80
2022-11-15T04:57:43.987Z,42.60
2022-11-15T05:00:18.801Z,41.97
2022-11-15T05:03:03.173Z,42.58
2022-11-15T05:05:34.690Z,44.08
2022-11-15T05:08:08.143Z,44.53
2022-11-15T05:10:44.074Z,44.35
2022-11-15T05:13:17.895Z,43.33
2022-11-15T05:16:19.133Z,40.50
2022-11-15T05:18:58.182Z,41.60
2022-11-15T05:21:31.645Z,40.83
2022-11-15T05:24:05.686Z,42.35
2022-11-15T05:27:05.604Z,42.47
2022-11-15T05:29:39.304Z,40.38
2022-11-15T05:32:28.552Z,40.50
2022-11-15T05:35:02.354Z,42.05
2022-11-15T05:37:35.363Z,41.20
2022-11-15T05:40:10.394Z,42.42
2022-11-15T05:45:37.113Z,41.75
2022-11-15T05:48:13.576Z,40.85
2022-11-15T05:50:50.155Z,41.30
2022-11-15T05:53:27.325Z,40.78
2022-11-15T05:55:59.291Z,41.60
2022-11-15T05:58:35.499Z,42.78
2022-11-15T06:01:07.496Z,42.58
2022-11-15T06:03:39.086Z,43.38
2022-11-15T06:06:15.187Z,41.75
2022-11-15T06:08:49.078Z,41.65
2022-11-15T06:11:21.167Z,42.42
2022-11-15T06:13:55.885Z,40.10
2022-11-15T06:16:28.090Z,43.13
2022-11-15T06:19:00.142Z,40.60
2022-11-15T06:21:31.975Z,41.75
2022-11-15T06:24:03.578Z,43.05
2022-11-15T06:26:36.015Z,41.45
2022-11-15T06:29:10.265Z,42.08
2022-11-15T06:31:41.982Z,40.63
2022-11-15T06:34:13.769Z,40.15
2022-11-15T06:36:45.759Z,42.72
2022-11-15T06:39:17.234Z,40.97
2022-11-15T06:41:49.271Z,42.63
2022-11-15T06:44:23.661Z,41.70
2022-11-15T06:46:55.564Z,42.38
2022-11-15T06:49:27.073Z,40.92
2022-11-15T06:51:58.708Z,41.88
2022-11-15T06:54:30.161Z,42.90
2022-11-15T06:57:01.813Z,42.28
2022-11-15T06:59:40.296Z,42.40
2022-11-15T07:02:16.984Z,43.97
2022-11-15T07:04:48.405Z,43.40
2022-11-15T07:07:20.224Z,42.42
2022-11-15T07:09:51.889Z,41.58
2022-11-15T07:12:24.714Z,40.08
2022-11-15T07:14:58.471Z,41.13
2022-11-15T07:17:30.353Z,39.63
2022-11-15T07:20:01.719Z,41.35
2022-11-15T07:22:33.484Z,41.25
2022-11-15T07:25:05.008Z,41.25
2022-11-15T07:27:36.963Z,39.13
2022-11-15T07:30:14.495Z,40.42
2022-11-15T07:32:47.751Z,40.67
2022-11-15T07:35:18.915Z,39.70
2022-11-15T07:38:19.429Z,41.33
2022-11-15T07:40:51.335Z,38.67
2022-11-15T07:43:23.265Z,37.47
2022-11-15T07:45:59.561Z,37.47
2022-11-15T07:48:42.631Z,40.67
2022-11-15T07:51:17.640Z,38.63
2022-11-15T07:53:49.687Z,37.17
2022-11-15T07:56:22.428Z,38.55
2022-11-15T07:58:54.545Z,37.22
2022-11-15T08:01:29.328Z,39.25
2022-11-15T08:04:01.553Z,38.63
2022-11-15T08:06:33.180Z,39.17
2022-11-15T08:09:05.449Z,38.42
2022-11-15T08:11:36.890Z,36.35
2022-11-15T08:14:08.921Z,37.08
2022-11-15T08:16:42.980Z,35.28
2022-11-15T08:19:14.806Z,36.05
2022-11-15T08:21:46.250Z,35.20
2022-11-15T08:24:18.090Z,36.30
2022-11-15T08:26:49.891Z,34.22
2022-11-15T08:29:21.759Z,34.58
2022-11-15T08:31:55.869Z,34.33
2022-11-15T08:34:27.687Z,33.53
2022-11-15T08:36:59.310Z,32.78
2022-11-15T08:39:31.189Z,33.45
2022-11-15T08:42:03.565Z,32.28
2022-11-15T08:44:35.841Z,30.98
2022-11-15T08:47:10.276Z,32.22
2022-11-15T08:49:42.498Z,32.65
2022-11-15T08:52:14.210Z,30.73
2022-11-15T08:54:45.986Z,27.73
2022-11-15T08:57:17.668Z,29.77
2022-11-15T08:59:49.704Z,29.85
2022-11-15T09:02:25.466Z,28.98
2022-11-15T09:05:00.703Z,27.27
2022-11-15T09:07:33.354Z,26.67
2022-11-15T09:10:05.936Z,26.17
2022-11-15T09:12:37.313Z,28.55
2022-11-15T09:15:10.667Z,26.80
2022-11-15T09:17:45.567Z,25.40
2022-11-15T09:20:19.498Z,27.15
2022-11-15T09:22:51.036Z,25.13
2022-11-15T09:25:23.084Z,25.17
2022-11-15T09:27:54.303Z,26.00
2022-11-15T09:30:26.412Z,24.33
2022-11-15T09:33:00.905Z,23.85
2022-11-15T09:35:32.615Z,24.88
2022-11-15T09:38:04.103Z,24.58
2022-11-15T09:40:40.299Z,23.30
2022-11-15T09:43:31.871Z,22.92
2022-11-15T09:46:14.148Z,22.27
2022-11-15T09:49:01.553Z,23.73
2022-11-15T09:51:36.675Z,21.77
2022-11-15T09:54:50.903Z,23.45
2022-11-15T09:57:16.677Z,22.30
2022-11-15T10:00:30.707Z,21.42
2022-11-15T10:03:18.295Z,22.05
2022-11-15T10:05:58.263Z,21.70
2022-11-15T10:08:41.743Z,22.20
2022-11-15T10:11:36.866Z,21.33
2022-11-15T10:14:15.678Z,20.50
2022-11-15T10:17:18.755Z,20.38
2022-11-15T10:20:06.283Z,20.38
2022-11-15T10:22:46.389Z,20.10
2022-11-15T10:25:24.030Z,19.02
2022-11-15T10:27:59.074Z,19.88
2022-11-15T10:30:38.885Z,20.15
2022-11-15T10:33:28.428Z,18.92
2022-11-15T10:36:26.963Z,18.25
2022-11-15T10:39:02.564Z,18.33
2022-11-15T10:41:41.094Z,19.52
2022-11-15T10:44:28.242Z,18.65
2022-11-15T10:47:29.009Z,18.85
2022-11-15T10:50:04.587Z,19.20
2022-11-15T10:52:40.582Z,18.45
2022-11-15T10:55:34.547Z,18.70
2022-11-15T10:58:10.655Z,18.05
2022-11-15T11:00:43.884Z,18.50
2022-11-15T11:03:36.392Z,19.90
2022-11-15T11:06:14.244Z,19.60
2022-11-15T11:08:59.732Z,18.40
2022-11-15T11:11:52.611Z,18.63
2022-11-15T11:14:29.175Z,17.75
2022-11-15T11:17:10.036Z,17.63
2022-11-15T11:20:01.116Z,19.73
2022-11-15T11:22:43.924Z,18.15
2022-11-15T11:25:28.971Z,18.55
2022-11-15T11:28:19.087Z,18.58
2022-11-15T11:31:11.011Z,19.00
2022-11-15T11:33:53.290Z,17.85
2022-11-15T11:36:31.987Z,18.13
2022-11-15T11:39:26.643Z,18.02
2022-11-15T11:42:08.294Z,17.88
2022-11-15T11:44:57.572Z,17.50
2022-11-15T11:47:35.681Z,18.15
2022-11-15T11:50:18.899Z,18.17
2022-11-15T11:53:03.952Z,18.50
2022-11-15T11:55:41.257Z,17.80
2022-11-15T11:58:18.742Z,17.88
2022-11-15T12:01:00.566Z,16.67
2022-11-15T12:03:38.605Z,17.55
2022-11-15T12:06:23.652Z,17.25
2022-11-15T12:09:05.048Z,16.70
2022-11-15T12:11:48.155Z,17.02
2022-11-15T12:14:31.726Z,17.05
2022-11-15T12:17:06.233Z,16.77
2022-11-15T12:19:40.933Z,17.90
2022-11-15T12:22:22.535Z,18.63
2022-11-15T12:25:00.684Z,18.90
2022-11-15T12:27:40.961Z,19.50
2022-11-15T12:30:17.258Z,18.10
2022-11-15T12:33:00.477Z,17.83
2022-11-15T12:35:38.205Z,17.95
2022-11-15T12:38:14.426Z,17.30
2022-11-15T12:41:19.168Z,18.02
2022-11-15T12:43:52.382Z,18.95
2022-11-15T12:46:48.045Z,18.70
2022-11-15T12:49:50.900Z,16.77
2022-11-15T12:52:23.555Z,16.95
2022-11-15T12:55:07.665Z,17.33
2022-11-15T12:57:44.524Z,16.95
2022-11-15T13:00:43.229Z,17.05
2022-11-15T13:03:33.133Z,17.52
2022-11-15T13:06:33.221Z,16.35
2022-11-15T13:09:05.372Z,17.85
2022-11-15T13:11:53.812Z,17.08
2022-11-15T13:14:46.036Z,17.40
2022-11-15T13:17:35.139Z,17.77
2022-11-15T13:20:27.338Z,18.10
2022-11-15T13:23:14.359Z,18.20
2022-11-15T13:26:17.474Z,18.02
2022-11-15T13:28:53.699Z,18.92
2022-11-15T13:31:32.336Z,19.50
2022-11-15T13:34:17.933Z,19.73
2022-11-15T13:36:59.907Z,19.80
2022-11-15T13:39:39.263Z,20.15
2022-11-15T13:42:20.570Z,20.63
2022-11-15T13:45:03.021Z,18.92
2022-11-15T13:47:37.045Z,19.92
2022-11-15T13:50:12.466Z,24.00
2022-11-15T13:52:50.608Z,20.48
2022-11-15T13:55:30.245Z,19.05
2022-11-15T13:58:07.605Z,19.25
2022-11-15T14:00:44.890Z,19.13
2022-11-15T14:03:24.764Z,20.23
2022-11-15T14:06:14.645Z,18.77
2022-11-15T14:09:05.669Z,19.25
2022-11-15T14:11:42.167Z,18.30
2022-11-15T14:14:18.863Z,18.40
2022-11-15T14:16:53.638Z,18.02
2022-11-15T14:19:41.085Z,19.30
2022-11-15T14:22:27.485Z,18.83
2022-11-15T14:25:20.303Z,17.10
2022-11-15T14:28:16.487Z,16.90
2022-11-15T14:30:51.534Z,17.17
2022-11-15T14:33:26.697Z,16.58
2022-11-15T14:35:59.591Z,16.52
2022-11-15T14:38:31.908Z,16.50
2022-11-15T14:41:04.265Z,16.30
2022-11-15T14:43:37.986Z,16.45
2022-11-15T14:46:09.752Z,17.45
2022-11-15T14:48:40.962Z,17.35
2022-11-15T14:51:17.302Z,18.20
2022-11-15T14:53:50.305Z,18.42
2022-11-15T14:56:21.922Z,16.70
2022-11-15T14:58:56.138Z,17.20
2022-11-15T15:01:30.200Z,16.95
2022-11-15T15:04:01.444Z,17.80
2022-11-15T15:06:33.265Z,16.13
2022-11-15T15:09:05.752Z,16.95
2022-11-15T15:11:37.305Z,17.45
2022-11-15T15:14:12.646Z,18.55
2022-11-15T15:16:44.468Z,17.52
2022-11-15T15:19:15.803Z,17.13
2022-11-15T15:21:47.428Z,18.85
2022-11-15T15:24:19.316Z,17.48
2022-11-15T15:26:51.542Z,19.60
2022-11-15T15:29:25.931Z,19.50
2022-11-15T15:31:57.682Z,19.75
2022-11-15T15:34:29.175Z,18.95
2022-11-15T15:37:27.234Z,19.88
2022-11-15T15:40:00.531Z,18.42
2022-11-15T15:42:32.671Z,19.77
2022-11-15T15:45:07.249Z,20.33
2022-11-15T15:47:39.541Z,21.27
2022-11-15T15:50:25.173Z,21.35
2022-11-15T15:52:59.295Z,20.58
2022-11-15T15:55:31.919Z,20.52
2022-11-15T15:58:04.195Z,19.55
2022-11-15T16:00:38.516Z,21.92
2022-11-15T16:03:10.505Z,21.83
2022-11-15T16:05:42.788Z,20.73
2022-11-15T16:08:22.858Z,20.92
2022-11-15T16:10:54.767Z,20.40
2022-11-15T16:13:26.650Z,20.63
2022-11-15T16:16:00.794Z,20.92
2022-11-15T16:18:34.607Z,21.13
2022-11-15T16:21:06.168Z,22.17
2022-11-15T16:23:37.948Z,21.88
2022-11-15T16:26:22.207Z,22.15
2022-11-15T16:28:53.547Z,21.58
2022-11-15T16:31:27.597Z,22.60
2022-11-15T16:34:01.589Z,23.70
2022-11-15T16:36:36.470Z,25.73
2022-11-15T16:39:08.378Z,23.65
2022-11-15T16:41:39.790Z,23.73
2022-11-15T16:44:11.303Z,24.90
2022-11-15T16:46:54.584Z,24.45
2022-11-15T16:49:26.423Z,24.70
2022-11-15T16:51:57.929Z,25.17
2022-11-15T16:54:29.814Z,25.50
2022-11-15T16:57:01.111Z,24.70
2022-11-15T16:59:38.159Z,25.48
2022-11-15T17:02:15.969Z,27.38
2022-11-15T17:04:50.528Z,27.88
2022-11-15T17:07:21.803Z,28.67
2022-11-15T17:09:53.571Z,29.27
2022-11-15T17:12:24.940Z,28.90
2022-11-15T17:14:56.520Z,29.67
2022-11-15T17:17:30.535Z,30.02
2022-11-15T17:20:05.396Z,30.40
2022-11-15T17:22:36.545Z,30.77
2022-11-15T17:25:09.369Z,33.78
2022-11-15T17:27:40.530Z,34.20
2022-11-15T17:30:15.608Z,34.33
2022-11-15T17:32:50.510Z,34.67
2022-11-15T17:35:22.233Z,37.92
2022-11-15T17:37:53.730Z,39.03
2022-11-15T17:40:25.628Z,37.65
2022-11-15T17:42:57.602Z,37.45
2022-11-15T17:45:30.474Z,36.63
2022-11-15T17:48:04.429Z,37.58
2022-11-15T17:50:36.383Z,39.53
2022-11-15T17:53:07.876Z,41.42
2022-11-15T17:55:39.629Z,40.15
2022-11-15T17:58:11.443Z,42.70
2022-11-15T18:00:43.003Z,42.70
2022-11-15T18:03:18.298Z,42.63
2022-11-15T18:05:50.245Z,42.22
2022-11-15T18:08:24.408Z,42.38
2022-11-15T18:11:08.924Z,42.83
2022-11-15T18:13:42.218Z,44.20
2022-11-15T18:16:17.393Z,43.67
2022-11-15T18:18:52.028Z,42.92
2022-11-15T18:21:25.834Z,43.13
2022-11-15T18:23:59.789Z,44.05
2022-11-15T18:26:34.182Z,41.95
2022-11-15T18:29:07.732Z,43.28
2022-11-15T18:31:43.590Z,41.90
2022-11-15T18:34:22.072Z,42.67
2022-11-15T18:36:56.065Z,42.55
2022-11-15T18:39:28.983Z,42.28
2022-11-15T18:42:02.453Z,43.05
2022-11-15T18:44:37.895Z,43.28
2022-11-15T18:47:11.425Z,44.08
2022-11-15T18:49:47.518Z,43.28
2022-11-15T18:52:21.332Z,42.28
2022-11-15T18:54:54.167Z,41.72
2022-11-15T18:57:27.455Z,42.88
2022-11-15T19:00:01.163Z,42.60
2022-11-15T19:02:34.240Z,41.35
2022-11-15T19:05:10.195Z,43.05
2022-11-15T19:07:43.320Z,42.58
2022-11-15T19:10:15.814Z,42.40
2022-11-15T19:12:49.934Z,41.42
2022-11-15T19:15:22.418Z,42.72
2022-11-15T19:17:55.550Z,42.10
2022-11-15T19:20:30.695Z,42.33
2022-11-15T19:23:03.934Z,43.58
2022-11-15T19:25:37.016Z,43.03
2022-11-15T19:28:10.053Z,41.70
2022-11-15T19:30:42.720Z,43.20
2022-11-15T19:33:15.696Z,42.83
2022-11-15T19:35:51.135Z,41.70
2022-11-15T19:38:24.247Z,45.45
2022-11-15T19:41:02.700Z,48.50
2022-11-15T19:43:36.275Z,44.90
2022-11-15T19:46:10.133Z,44.00
2022-11-15T19:48:43.356Z,44.97
2022-11-15T19:51:22.003Z,47.10
2022-11-15T19:54:01.818Z,47.03
2022-11-15T19:56:34.320Z,46.72
2022-11-15T19:59:08.136Z,48.70
2022-11-15T20:01:40.951Z,46.85
2022-11-15T20:04:13.994Z,47.45
2022-11-15T20:06:49.170Z,48.10
2022-11-15T20:09:22.174Z,49.42
2022-11-15T20:11:54.756Z,48.15
2022-11-15T20:14:29.833Z,48.75
2022-11-15T20:17:02.295Z,51.17
2022-11-15T20:19:35.421Z,48.30
2022-11-15T20:22:11.181Z,48.85
2022-11-15T20:24:44.335Z,47.95
2022-11-15T20:27:16.758Z,48.53
2022-11-15T20:30:06.957Z,50.70
2022-11-15T20:32:39.575Z,47.83
2022-11-15T20:35:13.334Z,48.20
2022-11-15T20:37:48.934Z,48.88
2022-11-15T20:40:22.221Z,48.25
2022-11-15T20:42:56.922Z,47.13
2022-11-15T20:45:30.034Z,47.28
2022-11-15T20:48:02.772Z,46.55
2022-11-15T20:50:42.519Z,46.83
2022-11-15T20:53:20.474Z,45.85
2022-11-15T20:55:55.473Z,49.47
2022-11-15T20:58:30.514Z,45.28
2022-11-15T21:01:04.511Z,46.10
2022-11-15T21:03:38.057Z,46.67
2022-11-15T21:06:12.173Z,46.28
2022-11-15T21:08:59.721Z,45.15
2022-11-15T21:11:45.123Z,43.25
2022-11-15T21:14:18.018Z,46.72
2022-11-15T21:16:51.569Z,44.72
2022-11-15T21:19:29.063Z,44.05
2022-11-15T21:22:05.637Z,44.88
2022-11-15T21:24:41.197Z,43.72
2022-11-15T21:27:22.786Z,41.00
2022-11-15T21:29:56.157Z,45.13
2022-11-15T21:32:29.594Z,42.03
2022-11-15T21:35:02.725Z,43.13
2022-11-15T21:37:36.417Z,42.15
2022-11-15T21:40:13.459Z,43.20
2022-11-15T21:42:47.541Z,41.90
2022-11-15T21:45:20.795Z,44.95
2022-11-15T21:47:54.184Z,44.75
2022-11-15T21:50:27.060Z,41.75
2022-11-15T21:53:00.679Z,43.33
2022-11-15T21:55:36.316Z,44.60
2022-11-15T21:58:09.719Z,43.67
2022-11-15T22:00:54.699Z,41.33
2022-11-15T22:03:28.297Z,42.75
2022-11-15T22:06:01.224Z,48.85
2022-11-15T22:08:34.817Z,42.83
2022-11-15T22:11:10.512Z,42.85
2022-11-15T22:13:43.741Z,41.28
2022-11-15T22:16:16.178Z,42.80
2022-11-15T22:18:49.705Z,40.97
2022-11-15T22:21:23.315Z,43.00
2022-11-15T22:23:56.616Z,42.35
2022-11-15T22:26:32.075Z,42.47
2022-11-15T22:29:05.534Z,42.75
2022-11-15T22:31:38.087Z,43.20
2022-11-15T22:34:11.555Z,44.00
2022-11-15T22:37:13.176Z,43.00
2022-11-15T22:39:41.057Z,42.25
2022-11-15T22:42:22.204Z,41.92
2022-11-15T22:44:56.799Z,41.85
2022-11-15T22:47:29.758Z,41.25
2022-11-15T22:50:03.172Z,40.08
2022-11-15T22:52:35.893Z,42.17
2022-11-15T22:55:10.296Z,42.60
2022-11-15T22:57:45.777Z,40.75
2022-11-15T23:00:20.502Z,41.95
2022-11-15T23:02:54.598Z,43.63
2022-11-15T23:05:27.855Z,42.55
2022-11-15T23:08:00.575Z,41.65
2022-11-15T23:10:45.875Z,41.20
2022-11-15T23:13:21.434Z,43.85
2022-11-15T23:16:07.661Z,44.10
2022-11-15T23:18:42.154Z,43.17
2022-11-15T23:21:37.555Z,45.78
2022-11-15T23:24:09.837Z,45.45
2022-11-15T23:26:43.797Z,43.03
2022-11-15T23:29:20.771Z,46.63
2022-11-15T23:32:11.976Z,45.50
2022-11-15T23:34:46.458Z,44.40
2022-11-15T23:37:19.855Z,43.15
2022-11-15T23:39:52.355Z,45.10
2022-11-15T23:42:25.616Z,42.28
2022-11-15T23:45:00.994Z,43.47
2022-11-15T23:47:34.157Z,43.08
2022-11-15T23:50:36.355Z,40.85
2022-11-15T23:53:09.659Z,40.55
2022-11-15T23:55:42.615Z,43.95
2022-11-15T23:58:15.857Z,42.83
